Time;durP1;ratioP1;P1;durP2;ratioP2;P2;SDS_P1;SDS_P2;PMS_P1;PMS_P2;Temp;Humidity;BMP_temperature;BMP_pressure;BME280_temperature;BME280_humidity;BME280_pressure;Samples;Min_cycle;Max_cycle;Signal;HPM_P1;HPM_P2
2023/01/03 00:00:16;;;;;;;49.97;29.15;;;;;;;-1.08;85.84;94420.78;4978085;28;20034;-47
2023/01/03 00:02:41;;;;;;;60.20;30.05;;;;;;;-0.86;85.12;94419.47;4977767;28;20030;-45
2023/01/03 00:05:07;;;;;;;54.25;30.23;;;;;;;-0.87;83.99;94422.63;4980572;28;20034;-47
2023/01/03 00:07:32;;;;;;;64.93;34.97;;;;;;;-0.84;84.33;94419.00;4975743;28;20302;-47
2023/01/03 00:10:04;;;;;;;46.72;26.05;;;;;;;-0.70;83.46;94421.13;4982952;28;20022;-46
2023/01/03 00:12:31;;;;;;;40.85;24.00;;;;;;;-0.58;82.56;94425.63;4977489;28;20027;-47
2023/01/03 00:14:57;;;;;;;49.10;27.67;;;;;;;-0.84;82.43;94419.00;4974735;28;20101;-44
2023/01/03 00:17:23;;;;;;;46.20;26.42;;;;;;;-0.56;81.79;94428.63;4978246;28;20031;-45
2023/01/03 00:19:48;;;;;;;54.20;28.45;;;;;;;-0.64;82.63;94432.13;4975562;28;20033;-44
2023/01/03 00:22:15;;;;;;;58.13;30.25;;;;;;;-0.96;84.00;94426.09;4971545;28;20025;-46
2023/01/03 00:24:41;;;;;;;65.78;33.50;;;;;;;-1.08;85.70;94421.56;4977434;28;20161;-46
2023/01/03 00:27:06;;;;;;;120.40;38.03;;;;;;;-1.06;86.31;94423.84;4972660;28;20119;-46
2023/01/03 00:29:32;;;;;;;73.15;34.75;;;;;;;-0.93;86.44;94419.75;4977694;28;20093;-46
2023/01/03 00:31:58;;;;;;;97.18;33.40;;;;;;;-1.06;87.21;94427.28;4981193;28;20033;-45
2023/01/03 00:34:24;;;;;;;64.32;33.78;;;;;;;-0.81;86.76;94420.81;4981478;28;20027;-47
2023/01/03 00:36:49;;;;;;;67.38;29.80;;;;;;;-0.56;85.07;94425.94;4983994;28;20533;-45
2023/01/03 00:39:15;;;;;;;98.43;43.05;;;;;;;-0.55;84.20;94424.72;4975912;28;20027;-45
2023/01/03 00:41:40;;;;;;;67.28;23.63;;;;;;;-0.66;84.55;94427.16;4978447;28;20118;-47
2023/01/03 00:44:06;;;;;;;59.33;29.48;;;;;;;-0.98;85.66;94417.66;4980869;28;20038;-45
2023/01/03 00:46:32;;;;;;;48.50;22.85;;;;;;;-0.68;85.48;94413.28;4980455;28;20077;-45
2023/01/03 00:48:57;;;;;;;41.05;21.75;;;;;;;-0.80;84.87;94417.66;4977827;28;20042;-45
2023/01/03 00:51:25;;;;;;;36.08;19.52;;;;;;;-0.76;85.67;94420.97;4976892;28;20034;-45
2023/01/03 00:53:54;;;;;;;38.38;19.80;;;;;;;-0.78;84.89;94417.22;4984341;28;20072;-45
2023/01/03 00:56:20;;;;;;;58.58;21.50;;;;;;;-0.86;85.29;94416.00;4982874;28;20031;-45
2023/01/03 00:58:46;;;;;;;51.03;21.27;;;;;;;-0.79;85.06;94418.41;4989565;28;20038;-45
2023/01/03 01:01:19;;;;;;;68.47;21.27;;;;;;;-0.60;84.52;94416.44;4991120;28;20027;-44
2023/01/03 01:03:48;;;;;;;73.57;22.77;;;;;;;-0.92;84.74;94402.31;4985914;28;20037;-43
2023/01/03 01:06:25;;;;;;;53.22;22.60;;;;;;;-0.60;84.55;94411.78;4986522;28;20403;-45
2023/01/03 01:08:53;;;;;;;39.10;22.05;;;;;;;-0.59;83.19;94416.00;4983542;28;20511;-45
2023/01/03 01:11:19;;;;;;;39.50;20.30;;;;;;;-0.70;83.64;94417.66;4982873;28;20041;-45
2023/01/03 01:13:45;;;;;;;43.78;21.33;;;;;;;-0.78;83.96;94406.38;4988969;28;20030;-43
2023/01/03 01:16:13;;;;;;;51.67;20.58;;;;;;;-0.85;84.56;94407.44;4981941;28;20015;-44
2023/01/03 01:18:41;;;;;;;47.97;26.15;;;;;;;-0.84;84.28;94408.91;4978310;28;20056;-46
2023/01/03 01:21:08;;;;;;;45.13;24.80;;;;;;;-0.91;84.85;94408.47;4977914;28;20039;-45
2023/01/03 01:23:35;;;;;;;53.75;28.05;;;;;;;-1.22;85.51;94405.13;4984488;28;20468;-46
2023/01/03 01:26:02;;;;;;;51.88;27.25;;;;;;;-1.38;86.70;94399.97;4983229;28;20026;-46
2023/01/03 01:28:27;;;;;;;51.72;26.40;;;;;;;-1.41;87.09;94392.75;4980279;28;20038;-45
2023/01/03 01:30:53;;;;;;;59.22;28.38;;;;;;;-1.51;86.87;94394.69;4983776;28;20023;-45
2023/01/03 01:33:18;;;;;;;59.55;28.45;;;;;;;-1.60;87.37;94403.53;4979724;28;20118;-45
2023/01/03 01:35:44;;;;;;;44.78;23.83;;;;;;;-1.60;87.11;94400.09;4982191;28;20022;-44
2023/01/03 01:38:09;;;;;;;46.70;25.88;;;;;;;-1.68;87.17;94401.56;4979229;28;20061;-45
2023/01/03 01:40:35;;;;;;;48.22;26.30;;;;;;;-1.69;87.04;94403.50;4976315;28;20035;-45
2023/01/03 01:46:30;;;;;;;47.95;26.02;;;;;;;-1.56;86.90;94385.19;4947889;28;20514;-45
2023/01/03 01:49:02;;;;;;;48.58;25.95;;;;;;;-1.56;86.93;94389.88;4983099;28;20026;-45
2023/01/03 01:51:30;;;;;;;37.42;20.63;;;;;;;-1.50;87.91;94384.63;4984988;28;20089;-44
2023/01/03 01:53:56;;;;;;;34.70;19.75;;;;;;;-1.38;87.37;94386.44;4982244;28;20034;-46
2023/01/03 01:56:26;;;;;;;39.72;20.15;;;;;;;-1.36;86.72;94376.66;4989851;28;20502;-44
2023/01/03 01:58:54;;;;;;;39.92;21.20;;;;;;;-1.05;85.17;94381.97;4982660;28;20385;-45
2023/01/03 02:01:21;;;;;;;38.00;21.50;;;;;;;-1.30;85.80;94369.44;4982725;28;20065;-44
2023/01/03 02:03:54;;;;;;;36.30;19.52;;;;;;;-1.46;86.33;94379.81;4975706;28;20085;-44
2023/01/03 02:06:21;;;;;;;34.65;19.20;;;;;;;-1.44;86.85;94375.44;4977072;28;20495;-45
2023/01/03 02:08:46;;;;;;;44.30;22.90;;;;;;;-1.60;86.96;94379.19;4985011;28;20049;-44
2023/01/03 02:11:31;;;;;;;47.55;23.05;;;;;;;-1.66;86.83;94378.28;4979096;28;20030;-48
2023/01/03 02:14:09;;;;;;;43.08;22.00;;;;;;;-1.55;86.03;94375.13;4976688;28;20421;-45
2023/01/03 02:16:56;;;;;;;48.10;23.55;;;;;;;-1.40;84.87;94380.72;4985541;28;20030;-44
2023/01/03 02:19:45;;;;;;;76.90;30.15;;;;;;;-1.24;84.41;94375.78;4975848;28;20128;-45
2023/01/03 02:22:38;;;;;;;65.65;33.17;;;;;;;-1.40;84.44;94378.00;4974908;28;20579;-45
2023/01/03 02:25:06;;;;;;;77.55;36.22;;;;;;;-1.34;83.93;94376.97;4981388;28;20181;-44
2023/01/03 02:27:57;;;;;;;90.57;39.95;;;;;;;-1.63;84.70;94376.63;4977309;28;20037;-45
2023/01/03 02:30:34;;;;;;;59.97;27.35;;;;;;;-1.84;85.83;94380.91;4979341;28;20041;-47
2023/01/03 02:33:11;;;;;;;55.80;27.58;;;;;;;-2.00;86.60;94378.47;4977432;28;20038;-45
2023/01/03 02:35:42;;;;;;;45.35;23.02;;;;;;;-2.01;86.84;94379.66;4971502;28;20128;-46
2023/01/03 02:38:32;;;;;;;54.63;27.45;;;;;;;-1.75;86.57;94375.53;4971945;28;20038;-46
2023/01/03 02:41:06;;;;;;;52.70;24.60;;;;;;;-1.57;84.97;94378.28;4978722;28;20468;-47
2023/01/03 02:43:41;;;;;;;35.83;19.15;;;;;;;-1.46;84.50;94377.09;4981290;28;20119;-47
2023/01/03 02:46:12;;;;;;;35.35;17.77;;;;;;;-1.57;84.18;94367.47;4985033;28;20586;-45
2023/01/03 02:48:54;;;;;;;41.35;21.17;;;;;;;-1.44;83.92;94377.41;4978285;28;20030;-44
2023/01/03 02:51:44;;;;;;;34.60;19.10;;;;;;;-1.61;84.78;94380.41;4980809;28;20430;-44
2023/01/03 02:54:13;;;;;;;39.58;21.33;;;;;;;-1.52;84.73;94376.19;4989288;28;20069;-44
2023/01/03 02:56:44;;;;;;;48.05;24.85;;;;;;;-1.55;85.13;94373.19;4980566;28;20414;-44
2023/01/03 02:59:14;;;;;;;58.22;28.70;;;;;;;-1.63;86.23;94377.38;4980316;28;20030;-45
2023/01/03 03:01:44;;;;;;;52.63;30.58;;;;;;;-1.70;86.89;94383.06;4980485;28;20418;-47
2023/01/03 03:04:11;;;;;;;156.52;33.58;;;;;;;-1.78;88.25;94375.69;4977616;28;20490;-45
2023/01/03 03:06:39;;;;;;;96.80;29.08;;;;;;;-1.61;88.64;94371.50;4983240;28;20150;-46
2023/01/03 03:09:05;;;;;;;158.43;21.98;;;;;;;-1.52;88.23;94368.06;4981461;28;20128;-46
2023/01/03 03:14:22;;;;;;;62.33;18.92;;;;;;;-1.52;88.08;94377.69;4975410;28;20573;-46
2023/01/03 03:16:49;;;;;;;65.05;17.65;;;;;;;-1.37;87.38;94367.03;4984270;28;20557;-46
2023/01/03 03:25:52;;;;;;;122.53;21.10;;;;;;;-1.59;86.51;94364.44;4982970;28;20170;-45
2023/01/03 03:28:36;;;;;;;104.40;17.50;;;;;;;-1.38;85.91;94367.47;4992123;28;20038;-46
2023/01/03 03:31:10;;;;;;;75.15;14.93;;;;;;;-1.34;86.20;94363.41;4975080;28;20041;-46
2023/01/03 03:33:58;;;;;;;72.85;15.35;;;;;;;-1.44;86.33;94364.63;4982517;28;20490;-44
2023/01/03 03:36:54;;;;;;;28.90;15.65;;;;;;;-1.61;87.77;94364.16;4973103;28;20081;-46
2023/01/03 03:45:17;;;;;;;;;;;;;;;-1.89;88.54;94372.63;4980585;28;20470;-45
2023/01/03 03:47:42;;;;;;;36.63;15.07;;;;;;;-1.77;88.02;94366.34;4980174;28;19961;-45
2023/01/03 03:50:17;;;;;;;28.83;14.93;;;;;;;-1.65;87.07;94362.78;4982134;28;20037;-44
2023/01/03 03:52:45;;;;;;;28.80;15.52;;;;;;;-1.90;86.92;94363.00;4979945;28;20146;-46
2023/01/03 03:55:31;;;;;;;28.35;15.07;;;;;;;-1.79;87.39;94355.22;5010941;28;20022;-46
2023/01/03 03:58:03;;;;;;;28.27;15.65;;;;;;;-1.74;86.37;94371.63;4981609;28;20046;-44
2023/01/03 04:00:32;;;;;;;30.88;13.80;;;;;;;-1.81;86.13;94369.22;4983007;28;20041;-44
2023/01/03 04:03:00;;;;;;;39.17;16.45;;;;;;;-1.95;86.67;94361.63;4973344;28;20080;-44
2023/01/03 04:05:29;;;;;;;32.38;14.35;;;;;;;-1.89;86.85;94359.88;4973920;28;20101;-45
2023/01/03 04:07:54;;;;;;;29.55;15.55;;;;;;;-1.90;86.70;94363.75;4999638;28;20030;-45
2023/01/03 04:10:22;;;;;;;33.55;18.30;;;;;;;-1.98;87.31;94367.94;4978993;28;20053;-46
2023/01/03 04:12:49;;;;;;;32.45;17.27;;;;;;;-1.99;88.03;94360.28;4983078;28;20040;-45
2023/01/03 04:15:15;;;;;;;26.92;15.00;;;;;;;-2.00;87.83;94364.19;4993442;28;20574;-45
2023/01/03 04:17:41;;;;;;;59.08;16.58;;;;;;;-2.19;88.86;94373.41;4984605;28;20047;-46
2023/01/03 04:20:07;;;;;;;61.30;14.40;;;;;;;-2.09;89.86;94377.66;4983379;28;20408;-45
2023/01/03 04:22:32;;;;;;;55.88;16.83;;;;;;;-2.05;89.50;94370.16;4983422;28;20353;-44
2023/01/03 04:24:58;;;;;;;32.75;18.25;;;;;;;-2.06;90.34;94374.84;4984529;28;20034;-46
2023/01/03 04:27:23;;;;;;;82.95;21.15;;;;;;;-2.11;90.75;94372.72;4984504;28;20413;-46
2023/01/03 04:29:49;;;;;;;110.90;17.75;;;;;;;-2.03;91.35;94371.22;4989326;28;20503;-46
2023/01/03 04:32:14;;;;;;;123.35;22.02;;;;;;;-2.04;91.71;94375.16;4978879;28;20039;-48
2023/01/03 04:34:39;;;;;;;65.95;14.63;;;;;;;-1.77;90.85;94375.22;4985958;28;20023;-45
2023/01/03 04:37:05;;;;;;;71.85;16.05;;;;;;;-1.73;89.95;94383.19;4988482;28;20026;-45
2023/01/03 04:39:30;;;;;;;56.38;17.35;;;;;;;-2.06;89.60;94376.78;4984024;28;20048;-45
2023/01/03 04:41:56;;;;;;;54.85;15.23;;;;;;;-2.08;90.07;94379.91;4981909;28;20022;-44
2023/01/03 04:44:21;;;;;;;54.80;16.20;;;;;;;-2.08;90.74;94374.50;4985661;28;20520;-45
2023/01/03 04:46:47;;;;;;;27.17;13.70;;;;;;;-1.89;90.54;94388.88;4981763;28;20073;-46
2023/01/03 04:49:12;;;;;;;38.05;16.17;;;;;;;-1.99;90.30;94379.97;4984218;28;20026;-46
2023/01/03 04:51:38;;;;;;;22.52;14.23;;;;;;;-1.99;89.86;94385.38;4985577;28;20073;-46
2023/01/03 04:54:04;;;;;;;49.95;13.48;;;;;;;-2.13;90.26;94390.56;4981363;28;20560;-46
2023/01/03 04:56:32;;;;;;;57.60;15.23;;;;;;;-2.20;90.53;94388.88;4980172;28;20050;-47
2023/01/03 04:58:58;;;;;;;71.07;16.33;;;;;;;-2.28;90.69;94393.06;4983894;28;20026;-49
2023/01/03 05:01:23;;;;;;;48.80;14.13;;;;;;;-2.11;90.90;94397.06;4986822;28;20108;-44
2023/01/03 05:03:49;;;;;;;41.83;14.35;;;;;;;-2.31;91.01;94394.69;4985565;28;20022;-44
2023/01/03 05:06:15;;;;;;;60.80;16.00;;;;;;;-2.23;91.21;94392.47;4973903;28;20137;-45
2023/01/03 05:08:44;;;;;;;82.28;25.80;;;;;;;-2.24;91.54;94399.09;4981396;28;20030;-45
2023/01/03 05:11:09;;;;;;;89.65;34.72;;;;;;;-2.22;91.31;94404.81;4983785;28;20038;-44
2023/01/03 05:13:35;;;;;;;47.65;26.02;;;;;;;-2.27;90.42;94397.25;4983883;28;20049;-44
2023/01/03 05:16:09;;;;;;;42.05;22.70;;;;;;;-2.21;90.45;94405.56;4984661;28;20394;-46
2023/01/03 05:18:35;;;;;;;33.63;18.52;;;;;;;-2.21;90.13;94403.63;4987322;28;20027;-46
2023/01/03 05:26:39;;;;;;;40.30;16.42;;;;;;;-2.44;90.96;94407.56;4979208;28;20065;-45
2023/01/03 05:29:05;;;;;;;38.42;16.48;;;;;;;-2.44;90.91;94402.13;4983143;28;20521;-45
2023/01/03 05:31:30;;;;;;;40.00;16.10;;;;;;;-2.18;90.40;94410.06;4987001;28;20492;-46
2023/01/03 05:33:56;;;;;;;46.50;17.15;;;;;;;-2.21;89.46;94403.63;4983536;28;20114;-45
2023/01/03 05:36:21;;;;;;;35.10;16.92;;;;;;;-2.23;89.19;94400.59;4976870;28;20020;-46
2023/01/03 05:38:47;;;;;;;74.57;19.83;;;;;;;-2.39;90.50;94406.22;4980206;28;20034;-45
2023/01/03 05:41:13;;;;;;;102.57;25.27;;;;;;;-2.16;90.20;94411.16;4981921;28;20472;-44
2023/01/03 05:43:38;;;;;;;130.15;45.33;;;;;;;-2.40;90.61;94415.53;4978495;28;20023;-45
2023/01/03 05:46:04;;;;;;;102.15;29.35;;;;;;;-2.40;91.11;94415.53;4985192;28;20034;-46
2023/01/03 05:48:29;;;;;;;113.43;21.00;;;;;;;-2.35;91.65;94421.13;4986297;28;20022;-47
2023/01/03 05:50:56;;;;;;;92.95;22.25;;;;;;;-2.20;91.74;94413.22;4979839;28;20038;-46
2023/01/03 05:53:22;;;;;;;75.53;22.02;;;;;;;-2.16;90.77;94427.38;4983729;28;20027;-50
2023/01/03 05:55:48;;;;;;;40.47;18.80;;;;;;;-2.25;90.61;94424.63;4989912;28;20118;-44
2023/01/03 05:58:13;;;;;;;53.53;18.92;;;;;;;-2.22;90.83;94425.69;4980884;28;20030;-44
2023/01/03 06:00:39;;;;;;;38.92;18.25;;;;;;;-2.28;90.76;94430.16;4977512;28;20029;-44
2023/01/03 06:03:04;;;;;;;38.08;20.10;;;;;;;-2.33;91.29;94431.50;4985934;28;20035;-44
2023/01/03 06:05:30;;;;;;;68.28;18.52;;;;;;;-2.55;92.09;94414.53;4988196;28;20513;-44
2023/01/03 06:07:57;;;;;;;67.25;22.45;;;;;;;-2.38;91.81;94429.34;4980172;28;20034;-44
2023/01/03 06:10:22;;;;;;;70.07;23.92;;;;;;;-2.28;92.01;94424.75;4977856;28;20114;-46
2023/01/03 06:12:47;;;;;;;56.80;21.42;;;;;;;-2.09;91.21;94440.66;4988441;28;20085;-47
2023/01/03 06:15:13;;;;;;;56.40;22.35;;;;;;;-1.97;90.98;94431.69;4982256;28;20084;-45
2023/01/03 06:17:53;;;;;;;77.13;28.88;;;;;;;-1.91;90.34;94438.03;4983901;28;20026;-47
2023/01/03 06:20:19;;;;;;;116.15;45.65;;;;;;;-2.03;90.13;94438.88;4983052;28;20027;-45
2023/01/03 06:22:45;;;;;;;140.27;39.92;;;;;;;-1.74;90.14;94435.84;4982089;28;20030;-48
2023/01/03 06:25:11;;;;;;;175.05;38.17;;;;;;;-1.62;89.64;94432.25;4979230;28;20046;-45
2023/01/03 06:27:37;;;;;;;68.45;23.52;;;;;;;-1.79;89.43;94431.75;4980879;28;20022;-46
2023/01/03 06:30:03;;;;;;;109.28;31.30;;;;;;;-1.77;90.16;94434.78;4986356;28;20030;-46
2023/01/03 06:32:28;;;;;;;131.77;31.23;;;;;;;-1.93;90.00;94421.50;4987794;28;20038;-46
2023/01/03 06:34:54;;;;;;;82.95;32.95;;;;;;;-1.78;89.90;94435.22;4987040;28;20696;-45
2023/01/03 06:37:20;;;;;;;84.30;22.63;;;;;;;-1.72;89.79;94434.19;4982494;28;20026;-45
2023/01/03 06:39:45;;;;;;;53.15;20.33;;;;;;;-1.73;89.55;94431.91;4983984;28;20037;-45
2023/01/03 06:53:36;;;;;;;49.00;24.42;;;;;;;-1.12;86.51;94434.50;4972038;28;20109;-46
2023/01/03 06:56:02;;;;;;;46.93;23.67;;;;;;;-1.22;86.44;94437.66;4980862;28;20089;-45
2023/01/03 06:58:28;;;;;;;41.72;21.85;;;;;;;-1.16;86.33;94433.91;4986833;28;20505;-45
2023/01/03 07:00:55;;;;;;;71.95;31.60;;;;;;;-1.36;87.04;94435.50;4976385;28;20057;-46
2023/01/03 07:03:21;;;;;;;55.92;27.15;;;;;;;-1.17;87.06;94435.09;4985783;28;20026;-45
2023/01/03 07:05:47;;;;;;;55.78;26.55;;;;;;;-0.97;86.91;94434.66;4989289;28;20029;-46
2023/01/03 07:08:12;;;;;;;36.40;19.88;;;;;;;-0.29;84.85;94438.72;4978934;28;20026;-45
2023/01/03 07:10:38;;;;;;;30.75;17.30;;;;;;;0.31;82.25;94449.56;4981453;28;20052;-47
2023/01/03 07:15:47;;;;;;;22.45;12.50;;;;;;;1.03;77.25;94440.31;4981285;28;20130;-45
2023/01/03 07:18:13;;;;;;;21.02;12.23;;;;;;;1.01;76.97;94442.72;4981958;28;20113;-47
2023/01/03 07:20:42;;;;;;;21.65;12.90;;;;;;;1.46;75.34;94445.88;4978773;28;20544;-45
2023/01/03 07:23:08;;;;;;;23.40;13.38;;;;;;;1.47;75.26;94452.09;4979362;28;20034;-47
2023/01/03 07:25:34;;;;;;;37.78;18.67;;;;;;;1.54;75.23;94452.47;4983687;28;20027;-47
2023/01/03 07:27:59;;;;;;;42.70;22.92;;;;;;;2.10;74.02;94451.50;4982816;28;20022;-46
2023/01/03 07:30:25;;;;;;;41.22;22.98;;;;;;;2.35;72.87;94452.91;4984296;28;20045;-47
2023/01/03 07:32:50;;;;;;;58.55;22.58;;;;;;;2.66;71.96;94439.50;4977300;28;20030;-46
2023/01/03 07:35:16;;;;;;;51.67;27.85;;;;;;;2.67;72.52;94448.44;4978408;28;20415;-46
2023/01/03 07:37:41;;;;;;;40.92;24.73;;;;;;;2.70;72.91;94440.06;4980761;28;20026;-48
2023/01/03 07:40:07;;;;;;;33.88;19.30;;;;;;;2.34;72.95;94445.19;4981579;28;20021;-46
2023/01/03 07:45:17;;;;;;;37.38;20.58;;;;;;;2.80;73.19;94446.91;4990332;28;20097;-47
2023/01/03 07:47:44;;;;;;;40.78;23.65;;;;;;;3.28;71.77;94441.06;4979962;28;20026;-46
2023/01/03 07:50:09;;;;;;;42.20;26.02;;;;;;;3.47;71.17;94439.56;4982387;28;20022;-46
2023/01/03 07:52:35;;;;;;;43.97;27.95;;;;;;;3.93;69.29;94434.13;4980563;28;20034;-45
2023/01/03 07:55:00;;;;;;;46.40;28.30;;;;;;;4.14;69.42;94447.25;4981473;28;20023;-45
2023/01/03 07:57:26;;;;;;;174.90;92.28;;;;;;;4.41;68.50;94448.72;4979473;28;20573;-46
2023/01/03 07:59:51;;;;;;;84.18;52.30;;;;;;;5.28;65.87;94453.28;4979205;28;20023;-45
2023/01/03 08:02:19;;;;;;;49.92;35.03;;;;;;;6.25;62.78;94453.91;4986562;28;20048;-46
2023/01/03 08:04:44;;;;;;;36.92;25.27;;;;;;;7.27;59.41;94430.91;4986281;28;20054;-46
2023/01/03 08:07:10;;;;;;;28.73;20.13;;;;;;;8.42;55.83;94439.16;4988651;28;20101;-46
2023/01/03 08:15:04;;;;;;;27.15;19.88;;;;;;;11.44;48.79;94434.34;4991134;28;20120;-47
2023/01/03 08:17:29;;;;;;;21.05;16.33;;;;;;;11.96;47.69;94439.91;4977173;28;20037;-47
2023/01/03 08:19:55;;;;;;;21.17;15.25;;;;;;;12.35;47.47;94441.13;4979810;28;20552;-47
2023/01/03 08:22:20;;;;;;;27.35;18.60;;;;;;;13.01;45.69;94444.41;4982514;28;20038;-49
2023/01/03 08:24:46;;;;;;;26.00;18.65;;;;;;;12.88;45.89;94442.44;4987363;28;20034;-48
2023/01/03 08:27:11;;;;;;;30.40;21.63;;;;;;;11.86;47.40;94441.63;4984186;28;20537;-50
2023/01/03 08:29:36;;;;;;;45.17;31.48;;;;;;;10.78;50.71;94449.31;4984146;28;20026;-47
2023/01/03 08:32:02;;;;;;;39.97;27.80;;;;;;;13.72;44.96;94439.06;4985628;28;20019;-50
2023/01/03 08:34:30;;;;;;;43.25;29.63;;;;;;;13.66;44.39;94439.19;4989990;28;20034;-48
2023/01/03 08:37:00;;;;;;;40.42;28.15;;;;;;;13.42;43.95;94439.59;4985529;28;20030;-47
2023/01/03 08:39:31;;;;;;;38.38;26.27;;;;;;;14.58;42.73;94437.63;4985670;28;20069;-45
2023/01/03 08:42:01;;;;;;;34.63;25.92;;;;;;;15.19;41.34;94442.78;4978822;28;20097;-46
2023/01/03 08:44:27;;;;;;;31.80;23.73;;;;;;;15.27;42.10;94439.97;4984881;28;20040;-47
2023/01/03 08:46:53;;;;;;;22.73;18.90;;;;;;;15.53;42.12;94434.06;4984501;28;20461;-48
2023/01/03 08:49:19;;;;;;;23.75;18.73;;;;;;;16.29;39.53;94440.25;4983219;28;20049;-49
2023/01/03 08:51:45;;;;;;;22.05;19.20;;;;;;;15.31;42.08;94439.63;4983680;28;20038;-46
2023/01/03 08:54:10;;;;;;;27.13;21.45;;;;;;;15.58;42.10;94432.41;4984816;28;20024;-47
2023/01/03 08:56:36;;;;;;;25.42;20.48;;;;;;;16.81;39.58;94432.97;4979847;28;20030;-48
2023/01/03 08:59:01;;;;;;;28.75;21.92;;;;;;;16.69;39.78;94434.72;4982388;28;20039;-47
2023/01/03 09:01:27;;;;;;;23.88;19.30;;;;;;;16.74;39.97;94428.16;4986630;28;20034;-47
2023/01/03 09:03:52;;;;;;;27.60;19.27;;;;;;;18.17;37.51;94427.03;4983914;28;20553;-49
2023/01/03 09:06:18;;;;;;;34.80;27.25;;;;;;;18.19;37.84;94424.41;4987306;28;20138;-48
2023/01/03 09:08:43;;;;;;;29.27;22.48;;;;;;;19.04;36.10;94422.81;4976509;28;20041;-50
2023/01/03 09:11:09;;;;;;;28.63;23.00;;;;;;;19.40;34.84;94422.13;4983204;28;20057;-47
2023/01/03 09:13:35;;;;;;;21.10;16.77;;;;;;;18.02;37.85;94415.28;4985118;28;20045;-48
2023/01/03 09:16:07;;;;;;;20.23;16.33;;;;;;;18.47;37.05;94408.47;4984167;28;20525;-49
2023/01/03 09:18:33;;;;;;;22.17;17.27;;;;;;;17.62;38.86;94404.31;4987752;28;20509;-48
2023/01/03 09:20:59;;;;;;;22.00;17.85;;;;;;;17.53;39.46;94409.78;4985912;28;20049;-46
2023/01/03 09:23:25;;;;;;;21.00;16.80;;;;;;;16.43;42.61;94405.25;4984350;28;20027;-48
2023/01/03 09:25:50;;;;;;;21.83;17.48;;;;;;;18.75;37.82;94402.34;4986048;28;20597;-47
2023/01/03 09:28:16;;;;;;;22.88;17.55;;;;;;;18.52;37.75;94402.63;4982716;28;20027;-49
2023/01/03 09:30:41;;;;;;;28.50;21.92;;;;;;;17.37;40.81;94393.13;4983893;28;20141;-47
2023/01/03 09:33:09;;;;;;;28.63;20.70;;;;;;;18.37;38.61;94388.03;4984097;28;20105;-47
2023/01/03 09:35:35;;;;;;;29.23;22.40;;;;;;;18.69;38.03;94396.97;4984641;28;20136;-47
2023/01/03 09:38:01;;;;;;;20.65;16.67;;;;;;;17.59;40.10;94385.16;4983929;28;20019;-47
2023/01/03 09:40:26;;;;;;;22.13;14.55;;;;;;;18.11;38.49;94383.88;4981354;28;20027;-47
2023/01/03 09:45:38;;;;;;;24.30;17.60;;;;;;;19.19;37.24;94375.00;4982937;28;20057;-48
2023/01/03 09:48:04;;;;;;;22.58;16.38;;;;;;;18.83;37.80;94374.97;4986032;28;20036;-48
2023/01/03 09:50:33;;;;;;;46.10;27.73;;;;;;;18.88;38.13;94369.09;4987722;28;20026;-48
2023/01/03 10:04:38;;;;;;;16.52;12.48;;;;;;;21.19;32.76;94337.09;4989576;28;20048;-47
2023/01/03 10:07:14;;;;;;;17.38;12.80;;;;;;;21.35;32.69;94327.00;4989472;28;20417;-47
2023/01/03 10:10:07;;;;;;;18.48;13.98;;;;;;;21.20;33.27;94340.66;4985122;28;20433;-47
2023/01/03 10:12:46;;;;;;;18.25;13.77;;;;;;;20.86;34.24;94333.34;4980811;28;20119;-48
2023/01/03 10:15:21;;;;;;;21.70;13.70;;;;;;;21.70;32.75;94324.44;4982124;28;20026;-50
2023/01/03 10:18:01;;;;;;;16.48;13.63;;;;;;;20.80;33.85;94322.44;4978816;28;20026;-47
2023/01/03 10:21:18;;;;;;;16.67;14.32;;;;;;;21.77;31.97;94326.28;4981598;28;20161;-46
2023/01/03 10:23:46;;;;;;;20.13;15.15;;;;;;;21.57;32.85;94319.31;4982641;28;20138;-50
2023/01/03 10:26:12;;;;;;;16.77;13.82;;;;;;;21.57;32.54;94316.53;4983259;28;20034;-47
2023/01/03 10:28:40;;;;;;;18.48;14.98;;;;;;;22.30;31.16;94289.03;4983374;28;20034;-48
2023/01/03 10:31:35;;;;;;;15.13;13.10;;;;;;;22.13;31.65;94311.84;4984679;28;20034;-46
2023/01/03 10:34:00;;;;;;;19.35;14.40;;;;;;;22.32;30.86;94300.41;4987668;28;20038;-47
2023/01/03 10:36:26;;;;;;;18.73;12.88;;;;;;;22.99;29.67;94304.63;4967883;28;20034;-47
2023/01/03 10:39:08;;;;;;;21.48;17.80;;;;;;;21.13;33.09;94295.31;4970155;28;20195;-47
2023/01/03 10:41:47;;;;;;;62.28;47.05;;;;;;;21.08;32.66;94290.75;4972418;28;20113;-48
2023/01/03 10:44:30;;;;;;;18.52;14.05;;;;;;;19.98;35.40;94294.81;4983932;28;20498;-49
2023/01/03 10:46:58;;;;;;;18.20;14.85;;;;;;;20.77;33.92;94283.63;4988141;28;20046;-47
2023/01/03 10:49:28;;;;;;;20.98;15.57;;;;;;;20.04;35.39;94283.28;4982565;28;20034;-50
2023/01/03 10:52:09;;;;;;;21.88;17.75;;;;;;;21.84;32.75;94281.13;4988724;28;20030;-48
2023/01/03 10:54:50;;;;;;;21.02;17.80;;;;;;;22.04;32.33;94281.72;4982348;28;20113;-48
2023/01/03 10:57:51;;;;;;;26.88;20.55;;;;;;;20.95;32.51;94282.81;4982416;28;20409;-48
2023/01/03 11:00:26;;;;;;;18.35;14.38;;;;;;;21.58;32.00;94275.81;5003466;28;20038;-47
2023/01/03 11:02:54;;;;;;;19.35;15.07;;;;;;;21.70;32.07;94276.63;4987868;28;20124;-47
2023/01/03 11:05:22;;;;;;;25.05;14.95;;;;;;;21.84;32.47;94269.16;4985689;28;20026;-47
2023/01/03 11:07:57;;;;;;;16.67;14.18;;;;;;;21.25;32.91;94263.75;4979734;28;20034;-48
2023/01/03 11:10:25;;;;;;;20.95;16.35;;;;;;;21.99;32.59;94270.78;4981583;28;20034;-46
2023/01/03 11:12:51;;;;;;;19.92;16.02;;;;;;;22.59;31.63;94261.34;4971627;28;20038;-46
2023/01/03 11:15:31;;;;;;;18.17;15.00;;;;;;;21.55;32.35;94260.19;4979403;28;20034;-46
2023/01/03 11:18:04;;;;;;;20.48;12.68;;;;;;;22.35;31.26;94268.25;4992677;28;20045;-48
2023/01/03 11:20:51;;;;;;;15.25;12.55;;;;;;;22.20;31.44;94254.63;4978317;28;20030;-46
2023/01/03 11:23:39;;;;;;;12.40;11.10;;;;;;;22.07;31.91;94255.19;4980547;28;20164;-45
2023/01/03 11:26:10;;;;;;;13.00;10.13;;;;;;;22.21;31.29;94247.66;4981224;28;20108;-49
2023/01/03 11:29:22;;;;;;;14.13;10.45;;;;;;;21.90;30.80;94249.84;4983357;28;20161;-47
2023/01/03 11:32:30;;;;;;;21.40;16.00;;;;;;;22.33;30.63;94248.41;5000123;28;20054;-48
2023/01/03 11:35:25;;;;;;;21.80;16.88;;;;;;;22.05;30.91;94243.06;4979397;28;20051;-46
2023/01/03 11:38:20;;;;;;;13.60;11.50;;;;;;;21.30;32.92;94232.53;5012425;28;20034;-46
2023/01/03 11:40:54;;;;;;;19.23;12.20;;;;;;;21.51;32.18;94232.53;4979878;28;20134;-47
2023/01/03 11:44:01;;;;;;;14.20;11.30;;;;;;;22.19;30.98;94222.22;4976427;28;20050;-47
2023/01/03 11:46:50;;;;;;;17.05;11.70;;;;;;;21.77;30.83;94216.66;4978021;28;20188;-45
2023/01/03 11:50:02;;;;;;;15.18;10.45;;;;;;;21.13;32.94;94219.50;4978878;28;20450;-47
2023/01/03 11:52:33;;;;;;;18.50;14.63;;;;;;;21.56;31.62;94209.00;4980909;28;20045;-48
2023/01/03 11:55:29;;;;;;;12.18;10.63;;;;;;;21.67;31.96;94207.56;4980968;28;20115;-49
2023/01/03 11:58:13;;;;;;;15.20;11.07;;;;;;;21.93;31.49;94198.06;4986246;28;20049;-49
2023/01/03 12:01:08;;;;;;;16.77;12.43;;;;;;;21.43;31.93;94203.16;4986742;28;20517;-47
2023/01/03 12:04:11;;;;;;;16.08;12.20;;;;;;;20.87;32.79;94206.47;4977581;28;20090;-50
2023/01/03 12:06:42;;;;;;;20.45;11.75;;;;;;;20.76;34.11;94201.50;4977479;28;20089;-46
2023/01/03 12:09:41;;;;;;;17.75;14.10;;;;;;;20.70;33.23;94197.53;4988053;28;20029;-45
2023/01/03 12:12:36;;;;;;;14.52;11.25;;;;;;;20.72;33.31;94209.63;4980132;28;20413;-46
2023/01/03 12:15:16;;;;;;;14.60;11.07;;;;;;;21.23;32.38;94205.38;4976964;28;20142;-48
2023/01/03 12:17:57;;;;;;;12.57;9.85;;;;;;;21.62;31.25;94195.31;4978224;28;20145;-47
2023/01/03 12:20:27;;;;;;;13.65;11.60;;;;;;;21.14;32.42;94197.75;4980711;28;20077;-46
2023/01/03 12:22:59;;;;;;;29.55;19.85;;;;;;;20.20;34.12;94189.13;4983384;28;20423;-46
2023/01/03 12:25:31;;;;;;;15.40;11.70;;;;;;;20.22;35.05;94194.91;4976678;28;20065;-45
2023/01/03 12:28:22;;;;;;;11.40;8.50;;;;;;;20.14;33.59;94195.03;5014849;28;20144;-46
2023/01/03 12:31:02;;;;;;;12.13;8.55;;;;;;;19.89;33.71;94191.13;4976493;28;20053;-48
2023/01/03 12:33:55;;;;;;;14.60;10.63;;;;;;;19.93;34.80;94194.94;4974437;28;20097;-47